Maersk Visby — 9V8827 — position and weather

sailwx.info

Track history (hours):
 
Tides and Currents Weather Stations Pressure Air Temp Water Temp Dewpoint Dewpoint Depression Visibility Wind Speed Wind Dir Waves Ship Positions

Maersk Visby

Last reported at 2014-Aug-21 03:33 UTC. Time now 2014-Aug-23 05:36 UTC.
Position N 26°18' W 078°26'.

Length 180 m; draft 9.3 m.

Type: Ship (hazmat cat C). MMSI: 564979000.

Date/timePositionNaut miles runAvg speedWind from/ knotsBaromVisibWave heightAir tempDewpointWater temp
2014-Aug-21 03:33N 26°18' W 078°26'22 2.0
2014-Aug-20 16:18N 26°32' W 078°46'  
2014-Aug-18 05:17N 32°48' W 078°60'1010.5
2014-Aug-18 04:22N 32°52' W 078°49'910.8
2014-Aug-18 03:31N 32°55' W 078°39'1111.0
2014-Aug-18 02:33N 32°58' W 078°27'1211.6
2014-Aug-18 01:33N 33°02' W 078°14'1312.3
2014-Aug-18 00:32N 33°06' W 077°60'7312.1
2014-Aug-17 18:33N 33°52' W 076°52'1212.2
2014-Aug-17 17:33N 34°00' W 076°41'1312.5
2014-Aug-17 16:33N 34°07' W 076°29'1312.5
2014-Aug-17 15:32N 34°15' W 076°17'1212.2
2014-Aug-17 14:32N 34°23' W 076°06'2511.8
2014-Aug-17 12:22N 34°39' W 075°42'11910.1
2014-Aug-17 00:32N 36°38' W 075°35'1212.4
2014-Aug-16 23:32N 36°48' W 075°45'1312.8
2014-Aug-16 22:33N 36°56' W 075°57'1413.5
2014-Aug-16 21:33N 37°00' W 076°14'9 9.0
2014-Aug-16 20:32N 36°53' W 076°20'1 0.5
2014-Aug-16 19:04N 36°53' W 076°21'0 0.0
2014-Aug-16 17:22N 36°53' W 076°21'0 0.0
2014-Aug-16 16:31N 36°53' W 076°21'0 0.0
2014-Aug-16 13:19N 36°53' W 076°21'0 0.0
2014-Aug-16 11:31N 36°53' W 076°21'0 0.2
2014-Aug-16 10:26N 36°53' W 076°21'6 7.2
2014-Aug-16 09:32N 36°59' W 076°19'1212.1
2014-Aug-16 08:32N 36°58' W 076°04'6 5.9
2014-Aug-16 07:33N 37°04' W 076°05'1413.8
2014-Aug-16 06:33N 37°18' W 076°07'7915.6
2014-Aug-16 01:29N 38°35' W 076°26'1515.9
2014-Aug-16 00:33N 38°50' W 076°24'1515.0
2014-Aug-15 23:33N 39°05' W 076°24'1212.2
2014-Aug-15 22:33N 39°14' W 076°33'1 0.9
2014-Aug-15 21:32N 39°15' W 076°33'0 0.0
2014-Aug-15 20:32N 39°15' W 076°33'0 0.0
2014-Aug-15 19:34N 39°15' W 076°33'0 0.0
2014-Aug-15 18:34N 39°15' W 076°33'0 0.0
2014-Aug-15 17:34N 39°15' W 076°33'0 0.0
2014-Aug-15 16:34N 39°15' W 076°33'0 0.0
2014-Aug-15 15:33N 39°15' W 076°33'0 0.0
2014-Aug-15 14:33N 39°15' W 076°33'0 0.0
2014-Aug-15 13:34N 39°15' W 076°33'0 0.0
2014-Aug-15 12:34N 39°15' W 076°33'0 0.0
2014-Aug-15 11:33N 39°15' W 076°33'4 4.5
2014-Aug-15 10:34N 39°12' W 076°29'1312.4
2014-Aug-15 09:33N 39°00' W 076°23'1414.0
2014-Aug-15 08:33N 38°47' W 076°26'7914.7
2014-Aug-15 03:12N 37°30' W 076°03'1015.4
2014-Aug-15 02:33N 37°20' W 076°05'1514.5
2014-Aug-15 01:32N 37°05' W 076°07'1413.9
2014-Aug-15 00:33N 36°55' W 075°55'14711.3
2014-Aug-14 11:30N 38°50' W 073°58'2914.6
2014-Aug-14 09:33N 39°19' W 073°54'1414.5
2014-Aug-14 08:33N 39°33' W 073°52'1414.1
2014-Aug-14 07:33N 39°47' W 073°51'1413.9
2014-Aug-14 06:33N 40°01' W 073°50'1614.0
2014-Aug-14 05:24N 40°17' W 073°49'1011.8
2014-Aug-14 04:32N 40°27' W 073°51'1212.2
2014-Aug-14 03:33N 40°36' W 074°02'6 6.3
2014-Aug-14 02:33N 40°40' W 074°08'2 1.3
2014-Aug-14 01:22N 40°41' W 074°09'0 0.0
2014-Aug-14 00:31N 40°41' W 074°09'0 0.0
2014-Aug-13 23:31N 40°41' W 074°09'0 0.0
2014-Aug-13 22:31N 40°41' W 074°09'0 0.0
2014-Aug-13 21:22N 40°41' W 074°09'0 0.0
2014-Aug-13 20:31N 40°41' W 074°09'0 0.0
2014-Aug-13 19:31N 40°41' W 074°09'0 0.0
2014-Aug-13 18:31N 40°41' W 074°09'0 0.0
2014-Aug-13 17:19N 40°41' W 074°09'0 0.0
2014-Aug-13 16:19N 40°41' W 074°09'0 0.0
2014-Aug-13 15:31N 40°41' W 074°09'0 0.0
2014-Aug-13 14:31N 40°41' W 074°09'0 0.0
2014-Aug-13 13:31N 40°41' W 074°09'0 0.0
2014-Aug-13 12:28N 40°41' W 074°09'0 0.0
2014-Aug-13 11:34N 40°41' W 074°09'1 1.3
2014-Aug-13 10:34N 40°40' W 074°08'4 4.3
2014-Aug-13 09:34N 40°38' W 074°03'1110.2
2014-Aug-13 08:31N 40°29' W 073°55'8 8.4
2014-Aug-13 07:33N 40°26' W 073°46'1212.0
2014-Aug-13 06:33N 40°18' W 073°33'1313.3
2014-Aug-13 05:33N 40°11' W 073°19'1313.4
2014-Aug-13 04:33N 40°04' W 073°04'1313.5
2014-Aug-13 03:33N 39°58' W 072°48'1313.3
2014-Aug-13 02:33N 39°52' W 072°32'1313.5
2014-Aug-13 01:33N 39°46' W 072°17'1312.5
2014-Aug-13 00:33N 39°41' W 072°02'1312.6
2014-Aug-12 23:33N 39°33' W 071°49'1312.7
2014-Aug-12 22:33N 39°25' W 071°36'1312.7
2014-Aug-12 21:33N 39°16' W 071°24'10 9.6
2014-Aug-12 20:33N 39°09' W 071°16'8 8.2
2014-Aug-12 19:33N 39°05' W 071°07'1313.0
2014-Aug-12 18:33N 38°56' W 070°54'1413.1
2014-Aug-12 17:32N 38°48' W 070°41'1313.4
2014-Aug-12 16:31N 38°39' W 070°28'1313.2
2014-Aug-12 15:33N 38°31' W 070°15'  
Track history (hours):
 
Tides and Currents Weather Stations Pressure Air Temp Water Temp Dewpoint Dewpoint Depression Visibility Wind Speed Wind Dir Waves Ship Positions

Maersk Visby

Last reported at 2014-Aug-21 03:33 UTC. Time now 2014-Aug-23 05:36 UTC.
Position N 26°18' W 078°26'.

Length 180 m; draft 9.3 m.

Type: Ship (hazmat cat C). MMSI: 564979000.

Date/timePositionNaut miles runAvg speedWind from/ knotsBaromVisibWave heightAir tempDewpointWater temp
2014-Aug-21 03:33N 26°18' W 078°26'22 2.0
2014-Aug-20 16:18N 26°32' W 078°46'  
2014-Aug-18 05:17N 32°48' W 078°60'1010.5
2014-Aug-18 04:22N 32°52' W 078°49'910.8
2014-Aug-18 03:31N 32°55' W 078°39'1111.0
2014-Aug-18 02:33N 32°58' W 078°27'1211.6
2014-Aug-18 01:33N 33°02' W 078°14'1312.3
2014-Aug-18 00:32N 33°06' W 077°60'7312.1
2014-Aug-17 18:33N 33°52' W 076°52'1212.2
2014-Aug-17 17:33N 34°00' W 076°41'1312.5
2014-Aug-17 16:33N 34°07' W 076°29'1312.5
2014-Aug-17 15:32N 34°15' W 076°17'1212.2
2014-Aug-17 14:32N 34°23' W 076°06'2511.8
2014-Aug-17 12:22N 34°39' W 075°42'11910.1
2014-Aug-17 00:32N 36°38' W 075°35'1212.4
2014-Aug-16 23:32N 36°48' W 075°45'1312.8
2014-Aug-16 22:33N 36°56' W 075°57'1413.5
2014-Aug-16 21:33N 37°00' W 076°14'9 9.0
2014-Aug-16 20:32N 36°53' W 076°20'1 0.5
2014-Aug-16 19:04N 36°53' W 076°21'0 0.0
2014-Aug-16 17:22N 36°53' W 076°21'0 0.0
2014-Aug-16 16:31N 36°53' W 076°21'0 0.0
2014-Aug-16 13:19N 36°53' W 076°21'0 0.0
2014-Aug-16 11:31N 36°53' W 076°21'0 0.2
2014-Aug-16 10:26N 36°53' W 076°21'6 7.2
2014-Aug-16 09:32N 36°59' W 076°19'1212.1
2014-Aug-16 08:32N 36°58' W 076°04'6 5.9
2014-Aug-16 07:33N 37°04' W 076°05'1413.8
2014-Aug-16 06:33N 37°18' W 076°07'7915.6
2014-Aug-16 01:29N 38°35' W 076°26'1515.9
2014-Aug-16 00:33N 38°50' W 076°24'1515.0
2014-Aug-15 23:33N 39°05' W 076°24'1212.2
2014-Aug-15 22:33N 39°14' W 076°33'1 0.9
2014-Aug-15 21:32N 39°15' W 076°33'0 0.0
2014-Aug-15 20:32N 39°15' W 076°33'0 0.0
2014-Aug-15 19:34N 39°15' W 076°33'0 0.0
2014-Aug-15 18:34N 39°15' W 076°33'0 0.0
2014-Aug-15 17:34N 39°15' W 076°33'0 0.0
2014-Aug-15 16:34N 39°15' W 076°33'0 0.0
2014-Aug-15 15:33N 39°15' W 076°33'0 0.0
2014-Aug-15 14:33N 39°15' W 076°33'0 0.0
2014-Aug-15 13:34N 39°15' W 076°33'0 0.0
2014-Aug-15 12:34N 39°15' W 076°33'0 0.0
2014-Aug-15 11:33N 39°15' W 076°33'4 4.5
2014-Aug-15 10:34N 39°12' W 076°29'1312.4
2014-Aug-15 09:33N 39°00' W 076°23'1414.0
2014-Aug-15 08:33N 38°47' W 076°26'7914.7
2014-Aug-15 03:12N 37°30' W 076°03'1015.4
2014-Aug-15 02:33N 37°20' W 076°05'1514.5
2014-Aug-15 01:32N 37°05' W 076°07'1413.9
2014-Aug-15 00:33N 36°55' W 075°55'14711.3
2014-Aug-14 11:30N 38°50' W 073°58'2914.6
2014-Aug-14 09:33N 39°19' W 073°54'1414.5
2014-Aug-14 08:33N 39°33' W 073°52'1414.1
2014-Aug-14 07:33N 39°47' W 073°51'1413.9
2014-Aug-14 06:33N 40°01' W 073°50'1614.0
2014-Aug-14 05:24N 40°17' W 073°49'1011.8
2014-Aug-14 04:32N 40°27' W 073°51'1212.2
2014-Aug-14 03:33N 40°36' W 074°02'6 6.3
2014-Aug-14 02:33N 40°40' W 074°08'2 1.3
2014-Aug-14 01:22N 40°41' W 074°09'0 0.0
2014-Aug-14 00:31N 40°41' W 074°09'0 0.0
2014-Aug-13 23:31N 40°41' W 074°09'0 0.0
2014-Aug-13 22:31N 40°41' W 074°09'0 0.0
2014-Aug-13 21:22N 40°41' W 074°09'0 0.0
2014-Aug-13 20:31N 40°41' W 074°09'0 0.0
2014-Aug-13 19:31N 40°41' W 074°09'0 0.0
2014-Aug-13 18:31N 40°41' W 074°09'0 0.0
2014-Aug-13 17:19N 40°41' W 074°09'0 0.0
2014-Aug-13 16:19N 40°41' W 074°09'0 0.0
2014-Aug-13 15:31N 40°41' W 074°09'0 0.0
2014-Aug-13 14:31N 40°41' W 074°09'0 0.0
2014-Aug-13 13:31N 40°41' W 074°09'0 0.0
2014-Aug-13 12:28N 40°41' W 074°09'0 0.0
2014-Aug-13 11:34N 40°41' W 074°09'1 1.3
2014-Aug-13 10:34N 40°40' W 074°08'4 4.3
2014-Aug-13 09:34N 40°38' W 074°03'1110.2
2014-Aug-13 08:31N 40°29' W 073°55'8 8.4
2014-Aug-13 07:33N 40°26' W 073°46'1212.0
2014-Aug-13 06:33N 40°18' W 073°33'1313.3
2014-Aug-13 05:33N 40°11' W 073°19'1313.4
2014-Aug-13 04:33N 40°04' W 073°04'1313.5
2014-Aug-13 03:33N 39°58' W 072°48'1313.3
2014-Aug-13 02:33N 39°52' W 072°32'1313.5
2014-Aug-13 01:33N 39°46' W 072°17'1312.5
2014-Aug-13 00:33N 39°41' W 072°02'1312.6
2014-Aug-12 23:33N 39°33' W 071°49'1312.7
2014-Aug-12 22:33N 39°25' W 071°36'1312.7
2014-Aug-12 21:33N 39°16' W 071°24'10 9.6
2014-Aug-12 20:33N 39°09' W 071°16'8 8.2
2014-Aug-12 19:33N 39°05' W 071°07'1313.0
2014-Aug-12 18:33N 38°56' W 070°54'1413.1
2014-Aug-12 17:32N 38°48' W 070°41'1313.4
2014-Aug-12 16:31N 38°39' W 070°28'1313.2
2014-Aug-12 15:33N 38°31' W 070°15'  

Dump ship's entire track history